Millersport, OH (43046)

2:04 AM EDT on August 22, 2017 (GMT -0400)
Harms WX - Ithaca Road | | Change Station

Elev 937 ft 39.93 °N, 82.58 °W | Updated 13 seconds ago

Partly Cloudy
Partly Cloudy
73.5 °F
Feels Like 73 °F
N
0.0
Wind Variable Wind from SSW
Gusts 0.0 mph

Today
High -- | Low -- °F
--% Chance of Precip.
Yesterday
High -- | Low -- °F
Precip. -- in
Pressure 30.02 in
Visibility 6.0 miles
Clouds Clear
Heat Index 73 °F
Dew Point 69 °F
Humidity 85%
Rainfall 0.00 in
Snow Depth Not available.
6:48 AM 8:16 PM
New Moon, 0% visible
METAR KVTA 220554Z AUTO 00000KT 6SM BR CLR 22/21 A3004 RMK AO2 SLP165 T02170206 10278 20217 58014
Pressure 30.02 in
Visibility 6.0 miles
Clouds Clear
Heat Index 73 °F
Dew Point 69 °F
Humidity 85%
Rainfall 0.00 in
Snow Depth Not available.
6:48 AM 8:16 PM
New Moon, 0% visible
METAR KVTA 220554Z AUTO 00000KT 6SM BR CLR 22/21 A3004 RMK AO2 SLP165 T02170206 10278 20217 58014

Get Severe Weather Alerts

Thanks for signing up!

Be on the lookout for a verification email in your inbox.

You'll start receiving the daily forecast at 6 AM.

×

10-Day Weather Forecast

Almanac

Astronomy

Aug. 22, 2017 Rise Set
Actual Time
Civil Twilight
Nautical Twilight
Astronomical Twilight
Moon
Length of Visible Light
Length of Day
Tomorrow will be .
, % of the Moon is Illuminated

Today's Extremes

State Highs State Lows

Community

WunderPhotos

Category 6

Welcome to Category 6. This is the collective home for Weather Underground's featured writeups by Dr. Jeff Masters (right), Bob Henson (left), Chris Burt, and other regular contributors.

Nearby

Air Quality

  Air Quality AQ Index Pollutant
Not available.

Snow Depth

Station Depth Elevation

Earthquake Activity

City Distance Mag. Time & Date
Minimum magnitude displayed is 2.5.

Coastal Water Temperatures

Place Temperature

Stations

Nearby Weather Stations

Station Location Temp. Windchill Dew Point Humidity Wind Precip. Elev Updated Type
                   

Watches & Warnings

There are currently no watches in effect.